createdAt,value
2023-11-24T00:00:46.045Z,853.17
2023-11-24T00:01:46.041Z,853.14
2023-11-24T00:02:45.973Z,853.14
2023-11-24T00:03:45.996Z,853.14
2023-11-24T00:04:45.955Z,853.12
2023-11-24T00:05:45.933Z,853.08
2023-11-24T00:06:46.027Z,853.09
2023-11-24T00:07:45.908Z,852.93
2023-11-24T00:08:45.898Z,852.95
2023-11-24T00:09:45.937Z,852.92
2023-11-24T00:10:45.928Z,852.93
2023-11-24T00:11:45.866Z,852.90
2023-11-24T00:12:45.918Z,852.86
2023-11-24T00:13:45.850Z,852.88
2023-11-24T00:14:45.848Z,852.82
2023-11-24T00:15:45.868Z,852.86
2023-11-24T00:16:45.836Z,852.85
2023-11-24T00:17:45.846Z,852.80
2023-11-24T00:18:45.840Z,852.80
2023-11-24T00:19:45.783Z,852.77
2023-11-24T00:20:45.797Z,852.80
2023-11-24T00:21:45.858Z,852.73
2023-11-24T00:22:45.748Z,852.72
2023-11-24T00:23:45.746Z,852.72
2023-11-24T00:24:45.751Z,852.76
2023-11-24T00:25:45.728Z,852.70
2023-11-24T00:26:45.702Z,852.69
2023-11-24T00:27:45.775Z,852.62
2023-11-24T00:28:45.728Z,852.66
2023-11-24T00:29:45.670Z,852.64
2023-11-24T00:30:45.681Z,852.66
2023-11-24T00:31:45.678Z,852.62
2023-11-24T00:32:45.716Z,852.57
2023-11-24T00:33:45.802Z,852.51
2023-11-24T00:34:45.691Z,852.41
2023-11-24T00:35:45.622Z,852.43
2023-11-24T00:36:45.614Z,852.40
2023-11-24T00:37:45.610Z,852.33
2023-11-24T00:38:45.601Z,852.40
2023-11-24T00:39:45.607Z,852.34
2023-11-24T00:40:45.554Z,852.34
2023-11-24T00:41:45.546Z,852.34
2023-11-24T00:42:45.576Z,852.29
2023-11-24T00:43:45.535Z,852.29
2023-11-24T00:44:45.602Z,852.22
2023-11-24T00:45:45.519Z,852.22
2023-11-24T00:46:45.529Z,852.22
2023-11-24T00:47:45.506Z,852.18
2023-11-24T00:48:45.537Z,852.18
2023-11-24T00:49:45.461Z,852.21
2023-11-24T00:50:45.456Z,852.31
2023-11-24T00:51:45.485Z,852.34
2023-11-24T00:52:45.444Z,852.34
2023-11-24T00:53:45.454Z,852.34
2023-11-24T00:54:45.437Z,852.30
2023-11-24T00:55:45.397Z,852.26
2023-11-24T00:56:45.380Z,852.22
2023-11-24T00:57:45.424Z,852.19
2023-11-24T00:58:45.396Z,852.20
2023-11-24T00:59:45.347Z,852.16
2023-11-24T01:00:45.386Z,852.19
2023-11-24T01:01:45.390Z,852.21
2023-11-24T01:02:45.367Z,852.16
2023-11-24T01:03:45.381Z,852.11
2023-11-24T01:04:45.330Z,852.13
2023-11-24T01:05:45.303Z,852.11
2023-11-24T01:06:45.300Z,852.12
2023-11-24T01:07:45.282Z,852.08
2023-11-24T01:08:45.258Z,852.12
2023-11-24T01:09:45.254Z,852.00
2023-11-24T01:10:45.243Z,852.04
2023-11-24T01:11:45.218Z,852.05
2023-11-24T01:12:45.239Z,852.04
2023-11-24T01:13:45.201Z,852.04
2023-11-24T01:14:45.197Z,852.03
2023-11-24T01:15:45.209Z,851.99
2023-11-24T01:16:45.257Z,852.01
2023-11-24T01:17:45.439Z,851.93
2023-11-24T01:18:45.167Z,851.85
2023-11-24T01:19:45.131Z,851.88
2023-11-24T01:20:45.122Z,851.89
2023-11-24T01:21:45.137Z,851.96
2023-11-24T01:22:45.119Z,851.97
2023-11-24T01:23:45.117Z,851.89
2023-11-24T01:24:45.129Z,851.87
2023-11-24T01:25:45.087Z,851.80
2023-11-24T01:26:45.060Z,851.79
2023-11-24T01:27:45.118Z,851.79
2023-11-24T01:28:45.051Z,851.80
2023-11-24T01:29:45.024Z,851.78
2023-11-24T01:30:45.084Z,851.74
2023-11-24T01:31:45.004Z,851.65
2023-11-24T01:32:45.057Z,851.59
2023-11-24T01:33:45.063Z,851.57
2023-11-24T01:34:44.987Z,851.55
2023-11-24T01:35:44.963Z,851.60
2023-11-24T01:36:45.048Z,851.63
2023-11-24T01:37:44.936Z,851.63
2023-11-24T01:38:44.942Z,851.60
2023-11-24T01:39:44.933Z,851.58
2023-11-24T01:40:44.919Z,851.57
2023-11-24T01:41:44.912Z,851.58
2023-11-24T01:42:44.943Z,851.59
2023-11-24T01:43:44.877Z,851.58
2023-11-24T01:44:44.887Z,851.54
2023-11-24T01:45:45.009Z,851.54
2023-11-24T01:46:44.911Z,851.57
2023-11-24T01:47:44.882Z,851.57
2023-11-24T01:48:44.879Z,851.56
2023-11-24T01:49:44.820Z,851.55
2023-11-24T01:50:44.816Z,851.50
2023-11-24T01:51:44.848Z,851.45
2023-11-24T01:52:44.772Z,851.42
2023-11-24T01:53:44.773Z,851.47
2023-11-24T01:54:44.811Z,851.46
2023-11-24T01:55:44.745Z,851.51
2023-11-24T01:56:44.737Z,851.48
2023-11-24T01:57:44.799Z,851.50
2023-11-24T01:58:44.714Z,851.42
2023-11-24T01:59:44.701Z,851.39
2023-11-24T02:00:44.744Z,851.38
2023-11-24T02:01:44.745Z,851.36
2023-11-24T02:02:44.972Z,851.35
2023-11-24T02:03:44.725Z,851.38
2023-11-24T02:04:44.687Z,851.30
2023-11-24T02:05:44.638Z,851.28
2023-11-24T02:06:44.702Z,851.27
2023-11-24T02:07:44.625Z,851.31
2023-11-24T02:08:44.632Z,851.26
2023-11-24T02:09:44.658Z,851.23
2023-11-24T02:10:44.609Z,851.23
2023-11-24T02:11:44.571Z,851.26
2023-11-24T02:12:44.583Z,851.23
2023-11-24T02:13:44.556Z,851.19
2023-11-24T02:14:44.565Z,851.21
2023-11-24T02:15:44.550Z,851.21
2023-11-24T02:16:44.559Z,851.19
2023-11-24T02:17:44.526Z,851.18
2023-11-24T02:18:44.526Z,851.12
2023-11-24T02:19:44.499Z,851.10
2023-11-24T02:20:44.504Z,851.07
2023-11-24T02:21:44.539Z,851.07
2023-11-24T02:22:44.467Z,851.07
2023-11-24T02:23:44.436Z,851.02
2023-11-24T02:24:44.479Z,851.02
2023-11-24T02:25:44.418Z,851.01
2023-11-24T02:26:44.411Z,851.01
2023-11-24T02:27:44.433Z,851.03
2023-11-24T02:28:44.395Z,850.98
2023-11-24T02:29:44.379Z,850.97
2023-11-24T02:30:44.429Z,850.97
2023-11-24T02:31:44.388Z,850.96
2023-11-24T02:32:44.392Z,850.98
2023-11-24T02:33:44.376Z,850.94
2023-11-24T02:34:44.334Z,850.96
2023-11-24T02:35:44.314Z,850.89
2023-11-24T02:36:44.360Z,850.79
2023-11-24T02:37:44.296Z,850.79
2023-11-24T02:38:44.279Z,850.81
2023-11-24T02:39:44.321Z,850.80
2023-11-24T02:40:44.318Z,850.77
2023-11-24T02:41:44.245Z,850.67
2023-11-24T02:42:44.267Z,850.67
2023-11-24T02:43:44.266Z,850.65
2023-11-24T02:44:44.227Z,850.57
2023-11-24T02:45:44.279Z,850.56
2023-11-24T02:46:44.209Z,850.66
2023-11-24T02:47:44.271Z,850.58
2023-11-24T02:48:44.421Z,850.52
2023-11-24T02:49:44.160Z,850.45
2023-11-24T02:50:44.160Z,850.39
2023-11-24T02:51:44.296Z,850.37
2023-11-24T02:52:44.157Z,850.32
2023-11-24T02:53:44.122Z,850.32
2023-11-24T02:54:44.207Z,850.29
2023-11-24T02:55:44.103Z,850.30
2023-11-24T02:56:44.087Z,850.20
2023-11-24T02:57:44.119Z,850.24
2023-11-24T02:58:44.066Z,850.15
2023-11-24T02:59:44.057Z,850.13
2023-11-24T03:00:44.053Z,850.08
2023-11-24T03:01:44.099Z,850.11
2023-11-24T03:02:44.048Z,850.10
2023-11-24T03:03:44.079Z,850.10
2023-11-24T03:04:44.040Z,850.12
2023-11-24T03:05:43.990Z,850.14
2023-11-24T03:06:44.015Z,850.08
2023-11-24T03:07:44.069Z,850.02
2023-11-24T03:08:43.989Z,849.87
2023-11-24T03:09:44.004Z,849.81
2023-11-24T03:10:43.935Z,849.79
2023-11-24T03:11:43.921Z,849.82
2023-11-24T03:12:43.970Z,849.78
2023-11-24T03:13:43.914Z,849.67
2023-11-24T03:14:43.930Z,849.63
2023-11-24T03:15:43.903Z,849.57
2023-11-24T03:16:43.892Z,849.55
2023-11-24T03:17:43.908Z,849.64
2023-11-24T03:18:43.916Z,849.74
2023-11-24T03:19:43.843Z,849.70
2023-11-24T03:20:43.831Z,849.69
2023-11-24T03:21:43.845Z,849.71
2023-11-24T03:22:43.807Z,849.65
2023-11-24T03:23:43.913Z,849.62
2023-11-24T03:24:43.839Z,849.61
2023-11-24T03:25:43.772Z,849.58
2023-11-24T03:26:43.762Z,849.53
2023-11-24T03:27:43.873Z,849.49
2023-11-24T03:28:43.744Z,849.58
2023-11-24T03:29:43.802Z,849.58
2023-11-24T03:30:43.835Z,849.57
2023-11-24T03:31:43.717Z,849.60
2023-11-24T03:32:43.716Z,849.59
2023-11-24T03:33:43.742Z,849.56
2023-11-24T03:34:43.798Z,849.64
2023-11-24T03:35:43.694Z,849.57
2023-11-24T03:36:43.807Z,849.52
2023-11-24T03:37:43.656Z,849.52
2023-11-24T03:38:43.649Z,849.57
2023-11-24T03:39:43.677Z,849.56
2023-11-24T03:40:43.672Z,849.49
2023-11-24T03:41:43.602Z,849.44
2023-11-24T03:42:43.614Z,849.45
2023-11-24T03:43:43.580Z,849.43
2023-11-24T03:44:43.568Z,849.41
2023-11-24T03:45:43.589Z,849.39
2023-11-24T03:46:43.727Z,849.40
2023-11-24T03:47:43.566Z,849.39
2023-11-24T03:48:43.568Z,849.40
2023-11-24T03:49:43.515Z,849.41
2023-11-24T03:50:43.499Z,849.41
2023-11-24T03:51:43.542Z,849.37
2023-11-24T03:52:43.484Z,849.30
2023-11-24T03:53:43.487Z,849.36
2023-11-24T03:54:43.499Z,849.32
2023-11-24T03:55:43.450Z,849.32
2023-11-24T03:56:43.463Z,849.29
2023-11-24T03:57:43.461Z,849.25
2023-11-24T03:58:43.425Z,849.24
2023-11-24T03:59:43.426Z,849.28
2023-11-24T04:00:43.487Z,849.35
2023-11-24T04:01:43.500Z,849.36
2023-11-24T04:02:43.492Z,849.34
2023-11-24T04:03:43.404Z,849.40
2023-11-24T04:04:43.356Z,849.37
2023-11-24T04:05:43.379Z,849.40
2023-11-24T04:06:43.368Z,849.42
2023-11-24T04:07:43.325Z,849.35
2023-11-24T04:08:43.321Z,849.33
2023-11-24T04:09:43.349Z,849.33
2023-11-24T04:10:43.290Z,849.41
2023-11-24T04:11:43.284Z,849.37
2023-11-24T04:12:43.312Z,849.40
2023-11-24T04:13:43.257Z,849.42
2023-11-24T04:14:43.263Z,849.39
2023-11-24T04:15:43.337Z,849.41
2023-11-24T04:16:43.263Z,849.40
2023-11-24T04:17:43.305Z,849.47
2023-11-24T04:18:43.287Z,849.41
2023-11-24T04:19:43.205Z,849.46
2023-11-24T04:20:43.184Z,849.48
2023-11-24T04:21:43.191Z,849.50
2023-11-24T04:22:43.166Z,849.48
2023-11-24T04:23:43.151Z,849.51
2023-11-24T04:24:43.174Z,849.46
2023-11-24T04:25:43.128Z,849.46
2023-11-24T04:26:43.120Z,849.39
2023-11-24T04:27:43.148Z,849.38
2023-11-24T04:28:43.141Z,849.43
2023-11-24T04:29:43.100Z,849.43
2023-11-24T04:30:43.123Z,849.41
2023-11-24T04:31:43.067Z,849.45
2023-11-24T04:32:43.102Z,849.42
2023-11-24T04:33:43.113Z,849.42
2023-11-24T04:34:43.047Z,849.43
2023-11-24T04:35:43.038Z,849.45
2023-11-24T04:36:43.054Z,849.45
2023-11-24T04:37:43.000Z,849.47
2023-11-24T04:38:42.988Z,849.47
2023-11-24T04:39:43.008Z,849.44
2023-11-24T04:40:42.993Z,849.40
2023-11-24T04:41:46.144Z,849.33
2023-11-24T04:42:42.951Z,849.32
2023-11-24T04:43:42.933Z,849.33
2023-11-24T04:44:42.950Z,849.38
2023-11-24T04:45:43.029Z,849.38
2023-11-24T04:46:43.054Z,849.46
2023-11-24T04:47:42.917Z,849.48
2023-11-24T04:48:43.052Z,849.42
2023-11-24T04:49:42.900Z,849.43
2023-11-24T04:50:42.854Z,849.40
2023-11-24T04:51:42.895Z,849.40
2023-11-24T04:52:42.839Z,849.39
2023-11-24T04:53:42.826Z,849.39
2023-11-24T04:54:42.859Z,849.34
2023-11-24T04:55:42.803Z,849.36
2023-11-24T04:56:42.840Z,849.36
2023-11-24T04:57:42.806Z,849.30
2023-11-24T04:58:42.780Z,849.22
2023-11-24T04:59:42.800Z,849.25
2023-11-24T05:00:42.862Z,849.32
2023-11-24T05:01:42.830Z,849.34
2023-11-24T05:02:42.813Z,849.35
2023-11-24T05:03:42.784Z,849.31
2023-11-24T05:04:42.729Z,849.33
2023-11-24T05:05:42.708Z,849.38
2023-11-24T05:06:42.716Z,849.31
2023-11-24T05:07:42.670Z,849.30
2023-11-24T05:08:44.644Z,849.39
2023-11-24T05:09:42.679Z,849.42
2023-11-24T05:10:42.639Z,849.37
2023-11-24T05:11:42.633Z,849.37
2023-11-24T05:12:42.647Z,849.29
2023-11-24T05:13:42.607Z,849.25
2023-11-24T05:14:42.608Z,849.23
2023-11-24T05:15:42.604Z,849.16
2023-11-24T05:16:42.624Z,849.25
2023-11-24T05:17:42.585Z,849.26
2023-11-24T05:18:42.666Z,849.31
2023-11-24T05:19:42.534Z,849.22
2023-11-24T05:20:42.533Z,849.24
2023-11-24T05:21:43.875Z,849.23
2023-11-24T05:22:42.525Z,849.23
2023-11-24T05:23:42.503Z,849.19
2023-11-24T05:24:42.568Z,849.12
2023-11-24T05:25:42.467Z,849.20
2023-11-24T05:26:42.455Z,849.21
2023-11-24T05:27:42.532Z,849.18
2023-11-24T05:28:42.432Z,849.20
2023-11-24T05:29:42.424Z,849.16
2023-11-24T05:30:42.443Z,849.14
2023-11-24T05:31:42.428Z,849.15
2023-11-24T05:32:42.520Z,849.05
2023-11-24T05:33:42.426Z,849.10
2023-11-24T05:34:42.369Z,849.17
2023-11-24T05:35:42.365Z,849.15
2023-11-24T05:36:42.357Z,849.17
2023-11-24T05:37:42.330Z,849.12
2023-11-24T05:38:42.325Z,849.14
2023-11-24T05:39:42.337Z,849.17
2023-11-24T05:40:42.330Z,849.15
2023-11-24T05:41:42.285Z,849.17
2023-11-24T05:42:42.305Z,849.16
2023-11-24T05:43:42.264Z,849.10
2023-11-24T05:44:42.251Z,849.04
2023-11-24T05:45:42.281Z,849.09
2023-11-24T05:46:42.301Z,849.13
2023-11-24T05:47:42.254Z,849.12
2023-11-24T05:48:42.295Z,849.08
2023-11-24T05:49:42.206Z,849.09
2023-11-24T05:50:42.195Z,849.07
2023-11-24T05:51:44.442Z,849.03
2023-11-24T05:52:42.184Z,848.99
2023-11-24T05:53:42.190Z,848.98
2023-11-24T05:54:42.198Z,848.99
2023-11-24T05:55:42.158Z,848.95
2023-11-24T05:56:42.138Z,848.93
2023-11-24T05:57:42.143Z,848.94
2023-11-24T05:58:42.119Z,848.93
2023-11-24T05:59:42.105Z,848.89
2023-11-24T06:00:42.140Z,848.86
2023-11-24T06:01:42.128Z,848.82
2023-11-24T06:02:42.088Z,848.85
2023-11-24T06:03:42.151Z,848.83
2023-11-24T06:04:42.245Z,848.89
2023-11-24T06:05:42.114Z,848.82
2023-11-24T06:06:42.098Z,848.75
2023-11-24T06:07:42.040Z,848.71
2023-11-24T06:08:42.023Z,848.76
2023-11-24T06:09:42.030Z,848.78
2023-11-24T06:10:41.994Z,848.78
2023-11-24T06:11:41.998Z,848.75
2023-11-24T06:12:41.996Z,848.71
2023-11-24T06:13:42.006Z,848.70
2023-11-24T06:14:42.013Z,848.71
2023-11-24T06:15:41.996Z,848.70
2023-11-24T06:16:41.934Z,848.66
2023-11-24T06:17:41.973Z,848.59
2023-11-24T06:18:41.976Z,848.59
2023-11-24T06:19:41.891Z,848.62
2023-11-24T06:20:41.924Z,848.68
2023-11-24T06:21:41.898Z,848.70
2023-11-24T06:22:41.861Z,848.73
2023-11-24T06:23:41.902Z,848.74
2023-11-24T06:24:41.971Z,848.71
2023-11-24T06:25:41.830Z,848.66
2023-11-24T06:26:41.827Z,848.72
2023-11-24T06:27:41.843Z,848.66
2023-11-24T06:28:41.804Z,848.68
2023-11-24T06:29:41.809Z,848.65
2023-11-24T06:30:41.804Z,848.73
2023-11-24T06:31:41.764Z,848.71
2023-11-24T06:32:41.773Z,848.72
2023-11-24T06:33:41.812Z,848.73
2023-11-24T06:34:41.742Z,848.67
2023-11-24T06:35:41.828Z,848.69
2023-11-24T06:36:41.789Z,848.67
2023-11-24T06:37:41.799Z,848.69
2023-11-24T06:38:41.730Z,848.68
2023-11-24T06:39:41.698Z,848.69
2023-11-24T06:40:41.671Z,848.67
2023-11-24T06:41:41.689Z,848.66
2023-11-24T06:42:41.765Z,848.67
2023-11-24T06:43:41.648Z,848.65
2023-11-24T06:44:41.690Z,848.64
2023-11-24T06:45:41.643Z,848.67
2023-11-24T06:46:41.622Z,848.67
2023-11-24T06:47:41.674Z,848.68
2023-11-24T06:48:41.610Z,848.70
2023-11-24T06:49:41.571Z,848.76
2023-11-24T06:50:41.578Z,848.75
2023-11-24T06:51:41.554Z,848.69
2023-11-24T06:52:41.571Z,848.65
2023-11-24T06:53:41.545Z,848.69
2023-11-24T06:54:41.580Z,848.65
2023-11-24T06:55:41.524Z,848.66
2023-11-24T06:56:41.498Z,848.65
2023-11-24T06:57:41.626Z,848.65
2023-11-24T06:58:41.489Z,848.69
2023-11-24T06:59:41.480Z,848.68
2023-11-24T07:00:41.637Z,848.74
2023-11-24T07:01:41.566Z,848.76
2023-11-24T07:02:41.481Z,848.75
2023-11-24T07:03:41.470Z,848.70
2023-11-24T07:04:41.414Z,848.64
2023-11-24T07:05:41.418Z,848.54
2023-11-24T07:06:41.415Z,848.59
2023-11-24T07:07:41.399Z,848.60
2023-11-24T07:08:41.405Z,848.68
2023-11-24T07:09:41.376Z,848.61
2023-11-24T07:10:41.464Z,848.58
2023-11-24T07:11:41.354Z,848.57
2023-11-24T07:12:41.370Z,848.51
2023-11-24T07:13:41.322Z,848.50
2023-11-24T07:14:41.312Z,848.53
2023-11-24T07:15:41.323Z,848.54
2023-11-24T07:16:41.401Z,848.49
2023-11-24T07:17:41.340Z,848.50
2023-11-24T07:18:41.475Z,848.43
2023-11-24T07:19:41.284Z,848.42
2023-11-24T07:20:41.245Z,848.41
2023-11-24T07:21:41.265Z,848.42
2023-11-24T07:22:41.247Z,848.50
2023-11-24T07:23:41.231Z,848.48
2023-11-24T07:24:41.271Z,848.47
2023-11-24T07:25:41.199Z,848.45
2023-11-24T07:26:41.196Z,848.46
2023-11-24T07:27:41.180Z,848.48
2023-11-24T07:28:41.159Z,848.42
2023-11-24T07:29:41.146Z,848.46
2023-11-24T07:30:41.187Z,848.45
2023-11-24T07:31:41.145Z,848.43
2023-11-24T07:32:41.236Z,848.40
2023-11-24T07:33:41.135Z,848.36
2023-11-24T07:34:41.128Z,848.43
2023-11-24T07:35:41.086Z,848.43
2023-11-24T07:36:41.139Z,848.43
2023-11-24T07:37:41.068Z,848.45
2023-11-24T07:38:41.047Z,848.53
2023-11-24T07:39:42.381Z,848.50
2023-11-24T07:40:41.064Z,848.46
2023-11-24T07:41:41.020Z,848.49
2023-11-24T07:42:41.099Z,848.51
2023-11-24T07:43:41.142Z,848.55
2023-11-24T07:44:40.985Z,848.56
2023-11-24T07:45:41.046Z,848.54
2023-11-24T07:46:41.080Z,848.49
2023-11-24T07:47:41.255Z,848.49
2023-11-24T07:48:41.063Z,848.41
2023-11-24T07:49:40.941Z,848.42
2023-11-24T07:50:40.951Z,848.41
2023-11-24T07:51:40.951Z,848.44
2023-11-24T07:52:40.908Z,848.47
2023-11-24T07:53:40.903Z,848.43
2023-11-24T07:54:40.926Z,848.39
2023-11-24T07:55:40.886Z,848.39
2023-11-24T07:56:40.889Z,848.42
2023-11-24T07:57:40.881Z,848.39
2023-11-24T07:58:40.836Z,848.38
2023-11-24T07:59:40.828Z,848.37
2023-11-24T08:00:40.848Z,848.32
2023-11-24T08:01:41.069Z,848.33
2023-11-24T08:02:40.885Z,848.35
2023-11-24T08:03:40.811Z,848.27
2023-11-24T08:04:40.843Z,848.24
2023-11-24T08:05:40.757Z,848.16
2023-11-24T08:06:41.723Z,848.22
2023-11-24T08:07:40.748Z,848.24
2023-11-24T08:08:40.725Z,848.20
2023-11-24T08:09:40.804Z,848.16
2023-11-24T08:10:40.704Z,848.13
2023-11-24T08:11:40.702Z,848.05
2023-11-24T08:12:40.768Z,848.08
2023-11-24T08:13:40.680Z,848.13
2023-11-24T08:14:40.692Z,848.02
2023-11-24T08:15:40.651Z,848.03
2023-11-24T08:16:40.703Z,848.05
2023-11-24T08:17:40.675Z,847.99
2023-11-24T08:18:40.649Z,847.97
2023-11-24T08:19:40.628Z,847.88
2023-11-24T08:20:40.598Z,847.90
2023-11-24T08:21:40.611Z,847.91
2023-11-24T08:22:40.568Z,847.91
2023-11-24T08:23:40.575Z,847.85
2023-11-24T08:24:40.625Z,847.84
2023-11-24T08:25:40.543Z,847.79
2023-11-24T08:26:40.526Z,847.73
2023-11-24T08:27:40.691Z,847.71
2023-11-24T08:28:40.545Z,847.70
2023-11-24T08:29:40.495Z,847.69
2023-11-24T08:30:40.529Z,847.69
2023-11-24T08:31:40.478Z,847.68
2023-11-24T08:32:42.597Z,847.75
2023-11-24T08:33:40.479Z,847.74
2023-11-24T08:34:40.469Z,847.76
2023-11-24T08:35:40.434Z,847.69
2023-11-24T08:36:40.443Z,847.66
2023-11-24T08:37:40.430Z,847.64
2023-11-24T08:38:40.411Z,847.59
2023-11-24T08:39:40.454Z,847.62
2023-11-24T08:40:40.387Z,847.65
2023-11-24T08:41:40.900Z,847.59
2023-11-24T08:42:40.392Z,847.55
2023-11-24T08:43:40.356Z,847.53
2023-11-24T08:44:40.608Z,847.52
2023-11-24T08:45:40.364Z,847.50
2023-11-24T08:46:40.435Z,847.50
2023-11-24T08:47:40.316Z,847.51
2023-11-24T08:48:40.291Z,847.47
2023-11-24T08:49:40.288Z,847.53
2023-11-24T08:50:40.267Z,847.49
2023-11-24T08:51:40.325Z,847.49
2023-11-24T08:52:40.246Z,847.42
2023-11-24T08:53:40.244Z,847.42
2023-11-24T08:54:40.250Z,847.40
2023-11-24T08:55:40.207Z,847.34
2023-11-24T08:56:40.195Z,847.39
2023-11-24T08:57:40.200Z,847.39
2023-11-24T08:58:40.182Z,847.42
2023-11-24T08:59:40.164Z,847.41
2023-11-24T09:00:40.202Z,847.41
2023-11-24T09:01:40.404Z,847.33
2023-11-24T09:02:40.192Z,847.25
2023-11-24T09:03:40.244Z,847.25
2023-11-24T09:04:40.156Z,847.29
2023-11-24T09:05:40.114Z,847.32
2023-11-24T09:06:40.434Z,847.27
2023-11-24T09:07:40.103Z,847.26
2023-11-24T09:08:40.065Z,847.21
2023-11-24T09:09:40.068Z,847.26
2023-11-24T09:10:40.061Z,847.24
2023-11-24T09:11:40.045Z,847.21
2023-11-24T09:12:40.052Z,847.26
2023-11-24T09:13:40.033Z,847.27
2023-11-24T09:14:40.162Z,847.26
2023-11-24T09:15:40.058Z,847.29
2023-11-24T09:16:40.027Z,847.34
2023-11-24T09:17:39.990Z,847.36
2023-11-24T09:18:39.982Z,847.30
2023-11-24T09:19:39.952Z,847.33
2023-11-24T09:20:39.937Z,847.33
2023-11-24T09:21:39.945Z,847.29
2023-11-24T09:22:39.929Z,847.27
2023-11-24T09:23:39.917Z,847.23
2023-11-24T09:24:39.924Z,847.24
2023-11-24T09:25:39.879Z,847.27
2023-11-24T09:26:39.882Z,847.25
2023-11-24T09:27:39.908Z,847.29
2023-11-24T09:28:39.862Z,847.16
2023-11-24T09:29:39.840Z,847.22
2023-11-24T09:30:40.148Z,847.19
2023-11-24T09:31:39.899Z,847.18
2023-11-24T09:32:39.863Z,847.19
2023-11-24T09:33:39.856Z,847.17
2023-11-24T09:34:39.922Z,847.16
2023-11-24T09:35:39.768Z,847.14
2023-11-24T09:36:39.770Z,847.14
2023-11-24T09:37:39.757Z,847.18
2023-11-24T09:38:39.754Z,847.15
2023-11-24T09:39:39.744Z,847.12
2023-11-24T09:40:39.732Z,847.15
2023-11-24T09:41:39.700Z,847.14
2023-11-24T09:42:39.710Z,847.08
2023-11-24T09:43:39.683Z,847.13
2023-11-24T09:44:39.680Z,847.10
2023-11-24T09:45:39.694Z,847.08
2023-11-24T09:46:46.699Z,847.05
2023-11-24T09:47:40.902Z,847.06
2023-11-24T09:48:39.671Z,847.06
2023-11-24T09:49:39.630Z,847.08
2023-11-24T09:50:39.637Z,847.05
2023-11-24T09:51:39.618Z,847.01
2023-11-24T09:52:39.596Z,846.95
2023-11-24T09:53:39.577Z,846.94
2023-11-24T09:54:39.625Z,846.94
2023-11-24T09:55:39.562Z,846.91
2023-11-24T09:56:39.553Z,846.92
2023-11-24T09:57:39.554Z,846.88
2023-11-24T09:58:39.530Z,846.88
2023-11-24T09:59:39.516Z,846.84
2023-11-24T10:00:39.533Z,846.82
2023-11-24T10:01:39.526Z,846.78
2023-11-24T10:02:39.526Z,846.75
2023-11-24T10:03:39.528Z,846.71
2023-11-24T10:04:39.536Z,846.75
2023-11-24T10:05:39.556Z,846.77
2023-11-24T10:06:39.453Z,846.71
2023-11-24T10:07:39.427Z,846.68
2023-11-24T10:08:39.409Z,846.71
2023-11-24T10:09:39.450Z,846.61
2023-11-24T10:10:39.393Z,846.61
2023-11-24T10:11:39.395Z,846.58
2023-11-24T10:12:39.380Z,846.56
2023-11-24T10:13:39.360Z,846.49
2023-11-24T10:14:39.346Z,846.46
2023-11-24T10:15:39.380Z,846.44
2023-11-24T10:16:39.337Z,846.44
2023-11-24T10:17:39.383Z,846.39
2023-11-24T10:18:39.359Z,846.32
2023-11-24T10:19:39.304Z,846.34
2023-11-24T10:20:39.304Z,846.23
2023-11-24T10:21:39.324Z,846.23
2023-11-24T10:22:39.268Z,846.21
2023-11-24T10:23:39.243Z,846.20
2023-11-24T10:24:39.287Z,846.14
2023-11-24T10:25:39.240Z,846.14
2023-11-24T10:26:39.207Z,846.14
2023-11-24T10:27:39.210Z,846.13
2023-11-24T10:28:39.192Z,846.04
2023-11-24T10:29:39.218Z,846.01
2023-11-24T10:30:39.305Z,846.05
2023-11-24T10:31:39.164Z,845.95
2023-11-24T10:32:39.164Z,845.99
2023-11-24T10:33:39.237Z,845.95
2023-11-24T10:34:39.204Z,845.96
2023-11-24T10:35:39.117Z,845.93
2023-11-24T10:36:39.138Z,845.90
2023-11-24T10:37:39.125Z,845.87
2023-11-24T10:38:39.097Z,845.80
2023-11-24T10:39:39.091Z,845.82
2023-11-24T10:40:39.065Z,845.81
2023-11-24T10:41:39.048Z,845.75
2023-11-24T10:42:39.114Z,845.70
2023-11-24T10:43:39.028Z,845.66
2023-11-24T10:44:39.037Z,845.70
2023-11-24T10:45:39.013Z,845.61
2023-11-24T10:46:39.069Z,845.57
2023-11-24T10:47:39.065Z,845.47
2023-11-24T10:48:39.055Z,845.43
2023-11-24T10:49:38.963Z,845.44
2023-11-24T10:50:38.962Z,845.34
2023-11-24T10:51:38.956Z,845.28
2023-11-24T10:52:38.955Z,845.26
2023-11-24T10:53:38.937Z,845.23
2023-11-24T10:54:38.952Z,845.19
2023-11-24T10:55:38.947Z,845.12
2023-11-24T10:56:40.673Z,845.14
2023-11-24T10:57:38.938Z,845.14
2023-11-24T10:58:38.869Z,845.11
2023-11-24T10:59:38.871Z,845.13
2023-11-24T11:00:39.054Z,845.10
2023-11-24T11:01:38.931Z,845.08
2023-11-24T11:02:38.875Z,845.08
2023-11-24T11:03:38.948Z,845.10
2023-11-24T11:04:38.820Z,845.13
2023-11-24T11:05:38.792Z,845.16
2023-11-24T11:06:38.797Z,845.07
2023-11-24T11:07:38.792Z,845.09
2023-11-24T11:08:38.811Z,845.09
2023-11-24T11:09:38.780Z,845.08
2023-11-24T11:10:38.771Z,845.08
2023-11-24T11:11:38.718Z,845.08
2023-11-24T11:12:38.828Z,844.98
2023-11-24T11:13:38.698Z,844.94
2023-11-24T11:14:38.690Z,844.95
2023-11-24T11:15:38.697Z,844.88
2023-11-24T11:16:38.835Z,844.76
2023-11-24T11:17:38.715Z,844.73
2023-11-24T11:18:38.789Z,844.69
2023-11-24T11:19:38.635Z,844.67
2023-11-24T11:20:38.639Z,844.67
2023-11-24T11:21:38.650Z,844.69
2023-11-24T11:22:38.609Z,844.66
2023-11-24T11:23:38.584Z,844.65
2023-11-24T11:24:38.647Z,844.66
2023-11-24T11:25:38.598Z,844.66
2023-11-24T11:26:38.554Z,844.62
2023-11-24T11:27:38.616Z,844.57
2023-11-24T11:28:38.541Z,844.53
2023-11-24T11:29:38.528Z,844.53
2023-11-24T11:30:38.674Z,844.55
2023-11-24T11:31:38.554Z,844.54
2023-11-24T11:32:38.509Z,844.52
2023-11-24T11:33:38.545Z,844.48
2023-11-24T11:34:38.480Z,844.42
2023-11-24T11:35:38.457Z,844.44
2023-11-24T11:36:38.460Z,844.43
2023-11-24T11:37:38.441Z,844.46
2023-11-24T11:38:38.428Z,844.43
2023-11-24T11:39:38.418Z,844.41
2023-11-24T11:40:38.488Z,844.36
2023-11-24T11:41:38.397Z,844.30
2023-11-24T11:42:38.388Z,844.33
2023-11-24T11:43:38.370Z,844.30
2023-11-24T11:44:38.393Z,844.28
2023-11-24T11:45:38.349Z,844.25
2023-11-24T11:46:38.410Z,844.33
2023-11-24T11:47:38.325Z,844.36
2023-11-24T11:48:38.314Z,844.30
2023-11-24T11:49:38.304Z,844.23
2023-11-24T11:50:38.326Z,844.10
2023-11-24T11:51:38.301Z,844.06
2023-11-24T11:52:38.357Z,844.00
2023-11-24T11:53:38.261Z,844.02
2023-11-24T11:54:38.249Z,844.08
2023-11-24T11:55:38.255Z,844.07
2023-11-24T11:56:38.268Z,844.10
2023-11-24T11:57:38.230Z,844.12
2023-11-24T11:58:38.208Z,844.12
2023-11-24T11:59:38.192Z,844.03
2023-11-24T12:00:38.205Z,844.00
2023-11-24T12:01:38.301Z,844.01
2023-11-24T12:02:38.257Z,843.94
2023-11-24T12:03:38.224Z,843.84
2023-11-24T12:04:38.267Z,843.74
2023-11-24T12:05:38.132Z,843.82
2023-11-24T12:06:38.253Z,843.89
2023-11-24T12:07:41.049Z,843.85
2023-11-24T12:08:38.110Z,843.74
2023-11-24T12:09:38.085Z,843.73
2023-11-24T12:10:38.070Z,843.66
2023-11-24T12:11:38.077Z,843.63
2023-11-24T12:12:38.094Z,843.69
2023-11-24T12:13:40.610Z,843.67
2023-11-24T12:14:38.028Z,843.65
2023-11-24T12:15:38.132Z,843.55
2023-11-24T12:16:38.067Z,843.55
2023-11-24T12:17:38.041Z,843.45
2023-11-24T12:18:38.035Z,843.39
2023-11-24T12:19:41.069Z,843.33
2023-11-24T12:20:38.083Z,843.37
2023-11-24T12:21:37.953Z,843.35
2023-11-24T12:22:37.944Z,843.32
2023-11-24T12:23:37.951Z,843.31
2023-11-24T12:24:37.921Z,843.27
2023-11-24T12:25:40.722Z,843.31
2023-11-24T12:26:37.901Z,843.34
2023-11-24T12:27:37.883Z,843.31
2023-11-24T12:28:37.918Z,843.24